North Wantagh, New York
Current Conditions -  °F | °C
As of 5:53 PM on Tuesday 21 Oct 2014 (Local Time) from KFRG Reporting Station
Broken Clouds Broken Clouds  
Wind Chill: 60°   Ceiling: 12000
Heat Index: 60°   Visibility: 10mi
Dew Point: 52°   Wind: 3mph
Humidity: 75%   Direction: 70°ENE
Pressure: 29.84"   Gusts: NA
Location:  40.681°N, 73.5104°W
Report Text: KFRG 212153Z 07003KT 10SM BKN120 16/11 A2984 RMK AO2 LTG DSNT E AND SE SLP106 T01560111
Loading
Personal Weather Stations






























Interactive Weather Map
Tropical Storm Tracking
New forecast layout! Learn more

10-Day Weather Forecast

Advertisements
Track Severe Weather on mobile